createdAt,value
2023-02-17T09:26:05.841Z,90.63
2023-02-17T09:28:34.392Z,96.13
2023-02-17T09:31:12.846Z,98.95
2023-02-17T09:33:42.105Z,98.93
2023-02-17T09:36:14.087Z,98.15
2023-02-17T09:38:44.478Z,98.60
2023-02-17T09:41:19.426Z,101.70
2023-02-17T09:43:47.775Z,97.35
2023-02-17T09:46:23.272Z,100.28
2023-02-17T09:48:53.549Z,100.97
2023-02-17T09:51:28.171Z,98.22
2023-02-17T09:54:18.819Z,100.32
2023-02-17T09:56:48.556Z,97.82
2023-02-17T09:59:26.744Z,95.28
2023-02-17T10:01:55.444Z,93.53
2023-02-17T10:04:39.500Z,97.10
2023-02-17T10:07:28.958Z,97.30
2023-02-17T10:10:05.572Z,95.72
2023-02-17T10:12:38.715Z,99.38
2023-02-17T10:15:19.159Z,97.50
2023-02-17T10:17:51.603Z,102.03
2023-02-17T10:20:25.831Z,95.65
2023-02-17T10:23:00.001Z,113.55
2023-02-17T10:25:54.671Z,115.63
2023-02-17T10:28:57.651Z,122.43
2023-02-17T10:31:41.628Z,105.72
2023-02-17T10:34:23.700Z,98.00
2023-02-17T10:39:45.532Z,91.28
2023-02-17T10:42:33.974Z,90.80
2023-02-17T10:45:10.831Z,89.95
2023-02-17T10:47:40.163Z,90.40
2023-02-17T10:50:19.316Z,86.55
2023-02-17T10:52:46.755Z,87.82
2023-02-17T10:55:23.785Z,86.60
2023-02-17T10:58:00.552Z,86.25
2023-02-17T11:00:27.981Z,86.13
2023-02-17T11:02:55.313Z,82.93
2023-02-17T11:05:30.048Z,84.43
2023-02-17T11:08:07.009Z,83.32
2023-02-17T11:10:37.333Z,81.00
2023-02-17T11:13:29.956Z,81.55
2023-02-17T11:15:58.363Z,79.45
2023-02-17T11:18:33.683Z,80.57
2023-02-17T11:21:07.228Z,80.18
2023-02-17T11:23:36.383Z,76.78
2023-02-17T11:26:16.313Z,77.22
2023-02-17T11:28:43.869Z,74.22
2023-02-17T11:31:27.345Z,73.97
2023-02-17T11:33:56.951Z,73.20
2023-02-17T11:36:28.621Z,71.03
2023-02-17T11:38:56.746Z,71.43
2023-02-17T11:41:24.218Z,69.05
2023-02-17T11:43:54.526Z,69.90
2023-02-17T11:46:24.505Z,68.45
2023-02-17T11:49:39.388Z,66.85
2023-02-17T11:52:36.369Z,66.70
2023-02-17T11:55:14.733Z,65.35
2023-02-17T11:57:59.059Z,64.50
2023-02-17T12:00:45.450Z,67.13
2023-02-17T12:03:27.898Z,66.22
2023-02-17T12:06:01.419Z,67.45
2023-02-17T12:08:48.174Z,66.03
2023-02-17T12:11:22.442Z,61.10
2023-02-17T12:14:01.718Z,62.63
2023-02-17T12:16:43.880Z,62.55
2023-02-17T12:19:59.513Z,62.97
2023-02-17T12:22:38.925Z,65.00
2023-02-17T12:25:27.351Z,70.90
2023-02-17T12:28:00.415Z,68.13
2023-02-17T12:30:54.375Z,75.10
2023-02-17T12:33:47.945Z,72.18
2023-02-17T12:36:19.500Z,74.25
2023-02-17T12:39:02.063Z,71.25
2023-02-17T12:41:48.334Z,67.10
2023-02-17T12:44:43.512Z,66.85
2023-02-17T12:47:17.454Z,63.92
2023-02-17T12:49:57.696Z,61.58
2023-02-17T12:52:32.982Z,58.42
2023-02-17T12:55:14.880Z,59.08
2023-02-17T12:57:55.945Z,57.13
2023-02-17T13:00:29.190Z,57.45
2023-02-17T13:03:02.152Z,54.88
2023-02-17T13:05:39.480Z,55.03
2023-02-17T13:08:09.063Z,57.80
2023-02-17T13:10:39.885Z,56.45
2023-02-17T13:13:10.386Z,53.63
2023-02-17T13:15:44.683Z,50.53
2023-02-17T13:18:29.755Z,46.90
2023-02-17T13:21:35.434Z,46.70
2023-02-17T13:24:13.656Z,46.75
2023-02-17T13:26:45.142Z,46.97
2023-02-17T13:29:32.620Z,47.92
2023-02-17T13:32:04.010Z,37.85
2023-02-17T13:34:37.532Z,34.30
2023-02-17T13:37:25.266Z,36.55
2023-02-17T13:39:53.263Z,34.83
2023-02-17T13:42:39.241Z,30.83
2023-02-17T13:45:34.172Z,28.10
2023-02-17T13:48:14.182Z,26.08
2023-02-17T13:50:47.220Z,24.60
2023-02-17T13:53:28.016Z,23.67
2023-02-17T13:55:58.677Z,22.73
2023-02-17T13:58:38.613Z,22.95
2023-02-17T14:01:08.642Z,21.13
2023-02-17T14:03:45.559Z,21.60
2023-02-17T14:06:24.577Z,19.73
2023-02-17T14:08:52.084Z,18.75
2023-02-17T14:11:24.210Z,18.70
2023-02-17T14:13:55.063Z,18.05
2023-02-17T14:16:56.889Z,16.13
2023-02-17T14:19:24.300Z,15.80
2023-02-17T14:22:01.180Z,15.85
2023-02-17T14:24:39.130Z,15.55
2023-02-17T14:27:14.047Z,14.27
2023-02-17T14:29:48.793Z,15.40
2023-02-17T14:32:36.593Z,15.13
2023-02-17T14:35:13.985Z,13.68
2023-02-17T14:37:42.663Z,16.42
2023-02-17T14:40:20.046Z,15.68
2023-02-17T14:42:47.851Z,15.48
2023-02-17T14:45:15.861Z,15.35
2023-02-17T14:47:43.593Z,15.35
2023-02-17T14:50:11.931Z,15.57
2023-02-17T14:52:43.955Z,16.80
2023-02-17T14:55:25.170Z,15.05
2023-02-17T14:57:52.568Z,16.00
2023-02-17T15:00:20.636Z,17.40
2023-02-17T15:02:48.154Z,15.32
2023-02-17T15:05:15.681Z,16.33
2023-02-17T15:07:43.125Z,15.27
2023-02-17T15:10:17.940Z,14.75
2023-02-17T15:12:45.268Z,15.80
2023-02-17T15:15:17.494Z,15.75
2023-02-17T15:17:45.030Z,16.60
2023-02-17T15:20:14.264Z,16.17
2023-02-17T15:22:42.375Z,15.95
2023-02-17T15:25:16.075Z,16.42
2023-02-17T15:27:44.046Z,16.05
2023-02-17T15:30:19.941Z,17.13
2023-02-17T15:32:47.880Z,16.00
2023-02-17T15:35:27.250Z,15.95
2023-02-17T15:37:56.499Z,17.08
2023-02-17T15:40:26.391Z,16.50
2023-02-17T15:42:56.685Z,16.05
2023-02-17T15:45:25.120Z,16.88
2023-02-17T15:48:08.639Z,17.05
2023-02-17T15:50:35.984Z,17.75
2023-02-17T15:53:03.422Z,17.75
2023-02-17T15:55:31.003Z,16.65
2023-02-17T15:58:02.531Z,16.77
2023-02-17T16:00:33.246Z,15.82
2023-02-17T16:03:00.860Z,16.60
2023-02-17T16:05:29.918Z,16.77
2023-02-17T16:07:57.289Z,15.85
2023-02-17T16:10:29.732Z,16.85
2023-02-17T16:12:59.527Z,16.50
2023-02-17T16:15:28.649Z,17.52
2023-02-17T16:17:56.150Z,16.67
2023-02-17T16:20:29.860Z,17.45
2023-02-17T16:22:57.245Z,15.73
2023-02-17T16:25:25.756Z,17.02
2023-02-17T16:27:53.714Z,17.40
2023-02-17T16:30:32.296Z,16.98
2023-02-17T16:33:00.646Z,18.50
2023-02-17T16:35:32.367Z,18.90
2023-02-17T16:38:08.987Z,17.55
2023-02-17T16:40:39.717Z,18.30
2023-02-17T16:43:07.053Z,18.08
2023-02-17T16:45:34.484Z,17.42
2023-02-17T16:48:02.104Z,18.42
2023-02-17T16:50:31.053Z,16.67
2023-02-17T16:53:01.150Z,19.05
2023-02-17T16:55:31.467Z,20.02
2023-02-17T16:57:59.438Z,19.48
2023-02-17T17:00:29.942Z,19.17
2023-02-17T17:02:58.332Z,21.35
2023-02-17T17:05:28.106Z,19.77
2023-02-17T17:07:55.879Z,20.27
2023-02-17T17:10:29.754Z,20.80
2023-02-17T17:12:57.542Z,19.95
2023-02-17T17:15:24.907Z,26.13
2023-02-17T17:18:01.294Z,23.13
2023-02-17T17:20:32.310Z,26.58
2023-02-17T17:23:05.202Z,27.63
2023-02-17T17:25:37.076Z,28.85
2023-02-17T17:30:35.625Z,38.40
2023-02-17T17:33:03.160Z,44.63
2023-02-17T17:35:31.346Z,48.80
2023-02-17T17:37:58.837Z,50.38
2023-02-17T17:40:29.340Z,52.20
2023-02-17T17:42:56.728Z,57.03
2023-02-17T17:45:25.222Z,58.95
2023-02-17T17:47:52.711Z,63.55
2023-02-17T17:50:23.756Z,68.03
2023-02-17T17:52:51.132Z,68.80
2023-02-17T17:55:18.568Z,70.07
2023-02-17T17:57:45.966Z,73.43
2023-02-17T18:00:15.919Z,76.97
2023-02-17T18:02:43.739Z,64.47
2023-02-17T18:05:12.276Z,63.88
2023-02-17T18:07:41.145Z,62.38
2023-02-17T18:10:11.635Z,66.10
2023-02-17T18:12:39.815Z,64.32
2023-02-17T18:15:08.363Z,65.97
2023-02-17T18:17:40.326Z,69.25
2023-02-17T18:20:10.681Z,65.43
2023-02-17T18:22:38.260Z,67.18
2023-02-17T18:25:06.628Z,67.13
2023-02-17T18:27:45.376Z,69.07
2023-02-17T18:30:16.065Z,69.72
2023-02-17T18:32:44.377Z,68.20
2023-02-17T18:35:13.258Z,71.13
2023-02-17T18:37:41.231Z,71.97
2023-02-17T18:40:12.664Z,71.20
2023-02-17T18:42:47.692Z,70.70
2023-02-17T18:45:16.078Z,76.38
2023-02-17T18:47:43.686Z,74.10
2023-02-17T18:50:11.806Z,75.70
2023-02-17T18:52:40.293Z,74.93
2023-02-17T18:55:09.625Z,75.65
2023-02-17T18:57:37.104Z,74.45
2023-02-17T19:00:09.117Z,72.15
2023-02-17T19:02:40.125Z,68.97
2023-02-17T19:05:09.228Z,68.43
2023-02-17T19:07:36.563Z,71.28
2023-02-17T19:10:05.198Z,74.55
2023-02-17T19:12:34.192Z,72.30
2023-02-17T19:15:01.580Z,74.45
2023-02-17T19:17:28.969Z,76.78
2023-02-17T19:19:56.629Z,79.32
2023-02-17T19:22:23.999Z,76.60
2023-02-17T19:24:53.219Z,77.07
2023-02-17T19:27:21.008Z,79.65
2023-02-17T19:29:48.346Z,79.15
2023-02-17T19:32:15.790Z,78.65
2023-02-17T19:34:43.203Z,76.30
2023-02-17T19:37:10.512Z,79.78
2023-02-17T19:39:37.928Z,77.72
2023-02-17T19:42:05.469Z,79.55
2023-02-17T19:44:32.884Z,82.75
2023-02-17T19:47:00.276Z,81.70
2023-02-17T19:49:27.636Z,79.60
2023-02-17T19:51:55.918Z,81.50
2023-02-17T19:54:24.349Z,78.63
2023-02-17T19:56:52.299Z,82.00
2023-02-17T19:59:19.853Z,80.78
2023-02-17T20:01:47.254Z,81.30
2023-02-17T20:04:14.825Z,82.45
2023-02-17T20:06:45.613Z,80.95
2023-02-17T20:09:19.039Z,82.47
2023-02-17T20:11:48.234Z,82.97
2023-02-17T20:14:15.930Z,85.00
2023-02-17T20:16:43.343Z,80.93
2023-02-17T20:19:10.894Z,91.88
2023-02-17T20:21:38.790Z,93.53
2023-02-17T20:24:06.375Z,89.63
2023-02-17T20:26:39.496Z,89.20
2023-02-17T20:29:07.283Z,87.32
2023-02-17T20:31:36.889Z,83.32
2023-02-17T20:34:06.910Z,88.10
2023-02-17T20:36:34.826Z,85.88
2023-02-17T20:39:02.832Z,86.45
2023-02-17T20:41:30.291Z,84.00
2023-02-17T20:44:01.202Z,80.45
2023-02-17T20:46:29.720Z,84.20
2023-02-17T20:48:57.460Z,80.60
2023-02-17T20:51:24.902Z,82.53
2023-02-17T20:53:52.524Z,84.43
2023-02-17T20:56:22.448Z,86.25
2023-02-17T20:58:51.117Z,84.18
2023-02-17T21:01:19.825Z,87.80
2023-02-17T21:03:47.505Z,84.45
2023-02-17T21:06:30.537Z,86.53
2023-02-17T21:09:01.846Z,85.75
2023-02-17T21:11:29.377Z,86.07
2023-02-17T21:13:56.847Z,85.82
2023-02-17T21:16:27.225Z,91.18
2023-02-17T21:18:54.696Z,90.47
2023-02-17T21:21:22.008Z,91.82
2023-02-17T21:23:49.468Z,90.13
2023-02-17T21:26:17.494Z,88.80
2023-02-17T21:28:46.326Z,87.88
2023-02-17T21:31:15.021Z,91.45
2023-02-17T21:33:43.158Z,88.55
2023-02-17T21:36:12.550Z,93.22
2023-02-17T21:38:40.421Z,88.15
2023-02-17T21:41:16.681Z,94.38
2023-02-17T21:44:02.872Z,91.35
2023-02-17T21:46:30.372Z,92.15
2023-02-17T21:48:59.952Z,89.38
2023-02-17T21:51:28.342Z,90.32
2023-02-17T21:53:55.941Z,89.85
2023-02-17T21:56:23.663Z,92.45
2023-02-17T21:58:55.145Z,91.82
2023-02-17T22:01:24.418Z,92.00
2023-02-17T22:03:52.661Z,88.85
2023-02-17T22:06:25.474Z,92.20
2023-02-17T22:08:53.095Z,91.47
2023-02-17T22:11:26.903Z,90.90
2023-02-17T22:13:56.692Z,91.38
2023-02-17T22:16:25.140Z,90.63
2023-02-17T22:18:53.169Z,89.32
2023-02-17T22:21:20.453Z,87.97
2023-02-17T22:23:48.113Z,87.97
2023-02-17T22:26:21.301Z,90.15
2023-02-17T22:28:48.984Z,92.28
2023-02-17T22:31:18.871Z,87.55
2023-02-17T22:33:46.374Z,86.35
2023-02-17T22:36:19.972Z,89.82
2023-02-17T22:38:47.308Z,91.38
2023-02-17T22:41:17.292Z,91.80
2023-02-17T22:43:46.220Z,89.85
2023-02-17T22:46:18.282Z,87.60
2023-02-17T22:48:47.519Z,89.75
2023-02-17T22:51:26.699Z,87.35
2023-02-17T22:53:54.188Z,87.00
2023-02-17T22:56:22.199Z,86.93
2023-02-17T22:58:55.312Z,87.32
2023-02-17T23:01:23.668Z,87.40
2023-02-17T23:03:53.925Z,88.05
2023-02-17T23:06:27.573Z,86.22
2023-02-17T23:08:55.490Z,85.07
2023-02-17T23:11:44.737Z,84.63
2023-02-17T23:14:13.426Z,81.20
2023-02-17T23:16:40.910Z,81.90
2023-02-17T23:19:11.001Z,77.40
2023-02-17T23:21:42.070Z,77.60
2023-02-17T23:24:09.328Z,76.18
2023-02-17T23:26:36.647Z,71.72
2023-02-17T23:29:04.195Z,72.43
2023-02-17T23:31:31.679Z,72.38
2023-02-17T23:33:59.123Z,68.85
2023-02-17T23:36:26.597Z,67.05
2023-02-17T23:38:55.682Z,66.95
2023-02-17T23:41:22.945Z,63.92
2023-02-17T23:43:50.245Z,62.38
2023-02-17T23:46:17.736Z,62.78
2023-02-17T23:48:45.125Z,60.88
2023-02-17T23:51:18.937Z,58.05
2023-02-17T23:53:47.095Z,57.08
2023-02-17T23:56:24.219Z,53.88
2023-02-17T23:58:52.183Z,54.53
